createdAt,value
2022-10-24T00:02:39.741Z,30.38
2022-10-24T00:05:10.983Z,29.48
2022-10-24T00:07:42.231Z,41.35
2022-10-24T00:12:45.919Z,37.42
2022-10-24T00:15:18.194Z,39.50
2022-10-24T00:17:49.134Z,38.15
2022-10-24T00:20:20.048Z,38.83
2022-10-24T00:22:50.924Z,37.92
2022-10-24T00:25:21.938Z,37.97
2022-10-24T00:27:52.860Z,46.25
2022-10-24T00:30:23.743Z,47.63
2022-10-24T00:35:59.813Z,43.72
2022-10-24T00:38:30.707Z,43.40
2022-10-24T00:41:01.688Z,44.53
2022-10-24T00:43:32.768Z,47.38
2022-10-24T00:46:04.994Z,51.00
2022-10-24T00:48:42.768Z,43.95
2022-10-24T00:51:24.833Z,42.65
2022-10-24T00:54:07.141Z,43.78
2022-10-24T00:56:47.747Z,48.10
2022-10-24T00:59:20.929Z,43.07
2022-10-24T01:01:52.130Z,40.60
2022-10-24T01:04:22.962Z,39.42
2022-10-24T01:07:20.719Z,37.17
2022-10-24T01:10:14.512Z,36.92
2022-10-24T01:13:18.472Z,38.47
2022-10-24T01:16:12.201Z,35.33
2022-10-24T01:18:58.455Z,35.03
2022-10-24T01:21:39.580Z,37.80
2022-10-24T01:24:33.708Z,39.03
2022-10-24T01:27:33.186Z,36.08
2022-10-24T01:30:17.054Z,37.50
2022-10-24T01:32:56.740Z,36.03
2022-10-24T01:35:38.491Z,33.17
2022-10-24T01:38:22.181Z,32.97
2022-10-24T01:41:00.115Z,30.25
2022-10-24T01:43:38.569Z,31.17
2022-10-24T01:46:16.581Z,32.13
2022-10-24T01:49:02.748Z,34.63
2022-10-24T01:51:35.939Z,31.08
2022-10-24T01:54:07.399Z,31.83
2022-10-24T01:56:38.156Z,29.95
2022-10-24T01:59:12.049Z,29.38
2022-10-24T02:01:43.093Z,32.17
2022-10-24T02:06:48.111Z,29.97
2022-10-24T02:09:22.255Z,29.48
2022-10-24T02:11:55.456Z,27.20
2022-10-24T02:14:37.854Z,26.58
2022-10-24T02:17:09.303Z,26.48
2022-10-24T02:19:41.222Z,24.88
2022-10-24T02:22:20.864Z,23.55
2022-10-24T02:25:17.258Z,22.98
2022-10-24T02:28:00.312Z,21.42
2022-10-24T02:30:33.176Z,21.58
2022-10-24T02:33:04.567Z,20.88
2022-10-24T02:35:39.104Z,21.10
2022-10-24T02:38:16.255Z,20.50
2022-10-24T02:40:49.077Z,21.58
2022-10-24T02:43:22.121Z,21.38
2022-10-24T02:45:56.743Z,21.17
2022-10-24T02:48:33.239Z,21.20
2022-10-24T02:51:05.108Z,20.60
2022-10-24T02:53:39.457Z,22.95
2022-10-24T02:56:10.775Z,22.13
2022-10-24T03:01:12.236Z,21.88
2022-10-24T03:03:43.234Z,20.40
2022-10-24T03:06:14.497Z,20.65
2022-10-24T03:08:45.195Z,19.83
2022-10-24T03:11:16.135Z,18.58
2022-10-24T03:13:47.055Z,19.42
2022-10-24T03:16:18.278Z,19.10
2022-10-24T03:18:49.371Z,18.77
2022-10-24T03:21:20.329Z,17.52
2022-10-24T03:23:51.219Z,18.15
2022-10-24T03:26:21.976Z,17.30
2022-10-24T03:28:52.852Z,18.37
2022-10-24T03:31:23.610Z,18.75
2022-10-24T03:33:54.438Z,18.97
2022-10-24T03:36:25.317Z,20.38
2022-10-24T03:38:56.327Z,19.08
2022-10-24T03:41:27.267Z,19.27
2022-10-24T03:43:58.130Z,20.10
2022-10-24T03:46:28.958Z,18.85
2022-10-24T03:48:59.812Z,18.05
2022-10-24T03:51:30.590Z,19.00
2022-10-24T03:54:01.687Z,19.83
2022-10-24T03:56:34.763Z,18.38
2022-10-24T03:59:05.592Z,18.65
2022-10-24T04:01:36.615Z,17.33
2022-10-24T04:04:07.628Z,18.13
2022-10-24T04:06:38.752Z,18.25
2022-10-24T04:09:10.084Z,17.20
2022-10-24T04:11:41.062Z,17.40
2022-10-24T04:14:12.294Z,17.48
2022-10-24T04:16:43.543Z,17.85
2022-10-24T04:19:14.399Z,18.25
2022-10-24T04:21:45.333Z,18.17
2022-10-24T04:24:16.750Z,17.17
2022-10-24T04:26:47.789Z,17.67
2022-10-24T04:29:19.125Z,17.98
2022-10-24T04:31:50.056Z,18.33
2022-10-24T04:34:21.109Z,16.08
2022-10-24T04:39:22.627Z,16.50
2022-10-24T04:44:23.826Z,14.90
2022-10-24T04:46:54.963Z,14.80
2022-10-24T04:49:25.774Z,14.88
2022-10-24T04:51:56.732Z,15.45
2022-10-24T04:54:27.406Z,15.57
2022-10-24T04:56:58.267Z,15.20
2022-10-24T04:59:29.080Z,14.95
2022-10-24T05:01:59.947Z,15.77
2022-10-24T05:04:30.766Z,14.35
2022-10-24T05:07:01.386Z,14.17
2022-10-24T05:09:32.242Z,15.45
2022-10-24T05:12:03.098Z,15.38
2022-10-24T05:14:34.037Z,15.55
2022-10-24T05:17:04.900Z,15.43
2022-10-24T05:19:35.842Z,15.45
2022-10-24T05:22:08.641Z,14.27
2022-10-24T05:24:41.808Z,15.63
2022-10-24T05:27:12.576Z,14.88
2022-10-24T05:29:43.648Z,14.95
2022-10-24T05:32:14.440Z,15.38
2022-10-24T05:34:45.989Z,15.07
2022-10-24T05:37:16.973Z,13.70
2022-10-24T05:39:47.993Z,13.80
2022-10-24T05:42:19.561Z,13.77
2022-10-24T05:44:50.649Z,14.15
2022-10-24T05:47:23.658Z,14.10
2022-10-24T05:49:56.814Z,15.00
2022-10-24T05:52:27.700Z,15.25
2022-10-24T05:55:08.478Z,15.07
2022-10-24T05:57:41.150Z,14.43
2022-10-24T06:00:15.406Z,15.18
2022-10-24T06:05:23.180Z,15.68
2022-10-24T06:07:54.086Z,13.43
2022-10-24T06:10:25.061Z,15.98
2022-10-24T06:12:56.035Z,14.90
2022-10-24T06:15:26.789Z,15.65
2022-10-24T06:17:57.725Z,16.10
2022-10-24T06:20:28.735Z,15.57
2022-10-24T06:22:59.675Z,14.90
2022-10-24T06:25:30.560Z,13.88
2022-10-24T06:28:01.659Z,15.05
2022-10-24T06:30:32.535Z,15.25
2022-10-24T06:33:04.071Z,15.07
2022-10-24T06:35:35.110Z,14.77
2022-10-24T06:38:06.083Z,15.13
2022-10-24T06:40:37.543Z,15.45
2022-10-24T06:43:08.445Z,15.07
2022-10-24T06:45:41.544Z,15.77
2022-10-24T06:48:13.256Z,15.65
2022-10-24T06:50:44.254Z,15.38
2022-10-24T06:53:15.177Z,15.10
2022-10-24T06:55:46.122Z,15.90
2022-10-24T06:58:16.955Z,15.32
2022-10-24T07:00:47.740Z,16.10
2022-10-24T07:03:19.451Z,14.57
2022-10-24T07:05:50.217Z,15.05
2022-10-24T07:08:21.222Z,15.00
2022-10-24T07:10:52.072Z,13.95
2022-10-24T07:13:22.939Z,15.20
2022-10-24T07:15:56.987Z,15.13
2022-10-24T07:18:28.169Z,15.52
2022-10-24T07:21:03.784Z,14.60
2022-10-24T07:23:34.925Z,15.35
2022-10-24T07:26:13.671Z,15.30
2022-10-24T07:28:47.306Z,15.48
2022-10-24T07:31:20.762Z,15.48
2022-10-24T07:33:52.342Z,15.80
2022-10-24T07:36:25.539Z,14.55
2022-10-24T07:38:59.438Z,15.38
2022-10-24T07:41:33.091Z,16.05
2022-10-24T07:44:07.103Z,15.32
2022-10-24T07:46:38.038Z,15.90
2022-10-24T07:49:08.974Z,15.13
2022-10-24T07:51:39.886Z,14.15
2022-10-24T07:54:11.347Z,15.43
2022-10-24T07:59:29.797Z,15.60
2022-10-24T08:02:03.536Z,18.77
2022-10-24T08:04:34.413Z,19.55
2022-10-24T08:07:05.243Z,20.05
2022-10-24T08:09:40.014Z,22.95
2022-10-24T08:12:11.083Z,23.08
2022-10-24T08:17:13.961Z,23.48
2022-10-24T08:19:44.915Z,23.92
2022-10-24T08:22:15.916Z,25.13
2022-10-24T08:24:47.637Z,25.30
2022-10-24T08:27:18.551Z,25.90
2022-10-24T08:29:49.622Z,26.45
2022-10-24T08:32:20.432Z,27.75
2022-10-24T08:34:51.502Z,27.10
2022-10-24T08:37:22.304Z,28.13
2022-10-24T08:39:53.203Z,27.65
2022-10-24T08:42:25.290Z,28.23
2022-10-24T08:44:56.591Z,27.40
2022-10-24T08:50:27.387Z,26.27
2022-10-24T08:53:04.574Z,26.27
2022-10-24T08:55:56.504Z,24.13
2022-10-24T08:58:33.052Z,24.15
2022-10-24T09:01:09.600Z,24.23
2022-10-24T09:03:56.470Z,24.38
2022-10-24T09:06:34.824Z,22.48
2022-10-24T09:09:29.728Z,23.48
2022-10-24T09:12:09.855Z,22.20
2022-10-24T09:14:42.287Z,23.75
2022-10-24T09:17:34.011Z,23.88
2022-10-24T09:20:31.709Z,25.05
2022-10-24T09:23:07.347Z,25.50
2022-10-24T09:25:41.260Z,23.52
2022-10-24T09:28:15.235Z,24.65
2022-10-24T09:30:46.275Z,23.15
2022-10-24T09:33:33.774Z,22.85
2022-10-24T09:36:07.707Z,24.40
2022-10-24T09:38:41.029Z,24.38
2022-10-24T09:41:22.311Z,24.80
2022-10-24T09:46:50.783Z,24.48
2022-10-24T09:49:29.033Z,25.58
2022-10-24T09:52:19.688Z,25.40
2022-10-24T09:55:06.067Z,26.23
2022-10-24T09:57:44.252Z,29.50
2022-10-24T10:00:38.850Z,29.55
2022-10-24T10:03:24.113Z,28.40
2022-10-24T10:06:01.155Z,28.55
2022-10-24T10:08:35.537Z,27.20
2022-10-24T10:11:12.692Z,26.50
2022-10-24T10:13:55.718Z,28.33
2022-10-24T10:16:32.278Z,27.50
2022-10-24T10:19:22.690Z,25.55
2022-10-24T10:22:04.753Z,26.67
2022-10-24T10:24:48.900Z,25.58
2022-10-24T10:27:39.500Z,25.85
2022-10-24T10:30:17.557Z,25.13
2022-10-24T10:33:22.830Z,25.20
2022-10-24T10:36:22.975Z,26.00
2022-10-24T10:39:21.952Z,25.75
2022-10-24T10:42:01.418Z,25.95
2022-10-24T10:44:32.520Z,24.63
2022-10-24T10:47:26.746Z,24.70
2022-10-24T10:50:01.351Z,24.67
2022-10-24T10:52:51.484Z,25.92
2022-10-24T10:55:29.939Z,25.67
2022-10-24T10:58:10.974Z,25.70
2022-10-24T11:00:49.723Z,25.52
2022-10-24T11:03:25.546Z,24.17
2022-10-24T11:06:09.455Z,24.23
2022-10-24T11:08:45.631Z,25.38
2022-10-24T11:11:25.366Z,24.55
2022-10-24T11:14:19.406Z,24.73
2022-10-24T11:16:50.994Z,25.40
2022-10-24T11:19:31.301Z,24.83
2022-10-24T11:22:06.598Z,24.02
2022-10-24T11:24:50.343Z,25.02
2022-10-24T11:27:29.345Z,25.40
2022-10-24T11:30:04.224Z,26.17
2022-10-24T11:32:58.066Z,26.48
2022-10-24T11:35:37.463Z,28.10
2022-10-24T11:38:19.440Z,27.27
2022-10-24T11:40:58.633Z,27.92
2022-10-24T11:43:44.389Z,27.13
2022-10-24T11:46:23.504Z,29.42
2022-10-24T11:49:14.876Z,28.60
2022-10-24T11:52:08.029Z,29.08
2022-10-24T11:54:56.186Z,28.42
2022-10-24T11:57:31.265Z,29.08
2022-10-24T12:00:02.714Z,29.70
2022-10-24T12:03:11.140Z,29.42
2022-10-24T12:05:44.888Z,30.35
2022-10-24T12:08:31.717Z,30.02
2022-10-24T12:11:41.384Z,31.55
2022-10-24T12:14:48.227Z,30.67
2022-10-24T12:17:19.791Z,29.48
2022-10-24T12:19:53.775Z,31.60
2022-10-24T12:22:32.377Z,31.85
2022-10-24T12:25:11.811Z,31.63
2022-10-24T12:27:44.806Z,32.72
2022-10-24T12:30:15.686Z,34.90
2022-10-24T12:32:53.812Z,36.80
2022-10-24T12:35:31.271Z,36.22
2022-10-24T12:39:48.258Z,35.85
2022-10-24T12:42:27.767Z,35.42
2022-10-24T12:45:04.641Z,35.78
2022-10-24T12:47:40.538Z,37.03
2022-10-24T12:50:27.166Z,35.47
2022-10-24T12:53:00.914Z,37.92
2022-10-24T12:55:41.348Z,38.35
2022-10-24T12:58:31.255Z,37.72
2022-10-24T13:01:12.803Z,39.17
2022-10-24T13:04:23.380Z,40.97
2022-10-24T13:07:02.660Z,44.20
2022-10-24T13:09:59.167Z,43.10
2022-10-24T13:12:57.906Z,43.90
2022-10-24T13:15:37.340Z,43.03
2022-10-24T13:18:36.351Z,43.80
2022-10-24T13:24:15.869Z,45.75
2022-10-24T13:26:53.960Z,44.80
2022-10-24T13:29:27.336Z,43.72
2022-10-24T13:32:20.794Z,43.70
2022-10-24T13:34:57.563Z,43.45
2022-10-24T13:37:53.541Z,44.65
2022-10-24T13:40:36.541Z,43.88
2022-10-24T13:43:17.219Z,41.50
2022-10-24T13:46:13.346Z,43.60
2022-10-24T13:48:50.812Z,41.72
2022-10-24T13:51:43.911Z,41.85
2022-10-24T13:54:24.504Z,41.25
2022-10-24T13:56:58.357Z,39.27
2022-10-24T13:59:39.927Z,40.15
2022-10-24T14:02:24.411Z,40.00
2022-10-24T14:04:58.323Z,40.10
2022-10-24T14:07:32.995Z,38.40
2022-10-24T14:10:11.478Z,39.58
2022-10-24T14:12:43.832Z,38.97
2022-10-24T14:15:23.110Z,39.10
2022-10-24T14:18:00.220Z,36.53
2022-10-24T14:20:33.284Z,37.17
2022-10-24T14:23:04.588Z,35.92
2022-10-24T14:25:39.208Z,35.47
2022-10-24T14:28:19.383Z,34.85
2022-10-24T14:31:02.519Z,36.88
2022-10-24T14:33:46.458Z,34.25
2022-10-24T14:36:18.016Z,35.83
2022-10-24T14:38:50.283Z,33.88
2022-10-24T14:41:29.622Z,36.03
2022-10-24T14:44:01.856Z,34.90
2022-10-24T14:46:39.996Z,34.90
2022-10-24T14:49:36.005Z,35.00
2022-10-24T14:52:28.439Z,36.97
2022-10-24T14:55:09.268Z,35.00
2022-10-24T14:57:41.197Z,35.78
2022-10-24T15:00:25.033Z,35.55
2022-10-24T15:02:59.386Z,34.72
2022-10-24T15:05:34.099Z,41.83
2022-10-24T15:08:23.338Z,41.10
2022-10-24T15:11:08.894Z,42.10
2022-10-24T15:14:05.540Z,42.05
2022-10-24T15:16:41.440Z,44.65
2022-10-24T15:19:20.894Z,41.47
2022-10-24T15:21:52.042Z,42.03
2022-10-24T15:24:29.161Z,39.75
2022-10-24T15:27:27.937Z,36.42
2022-10-24T15:29:59.630Z,36.72
2022-10-24T15:32:30.616Z,37.95
2022-10-24T15:35:01.572Z,38.42
2022-10-24T15:37:33.182Z,37.72
2022-10-24T15:40:23.463Z,37.30
2022-10-24T15:42:54.449Z,37.25
2022-10-24T15:45:26.214Z,36.47
2022-10-24T15:47:57.055Z,37.13
2022-10-24T15:50:27.982Z,40.50
2022-10-24T15:53:01.326Z,40.80
2022-10-24T15:55:34.668Z,42.72
2022-10-24T15:58:08.321Z,42.90
2022-10-24T16:00:39.206Z,42.50
2022-10-24T16:03:14.769Z,41.70
2022-10-24T16:05:51.961Z,43.47
2022-10-24T16:08:23.461Z,42.08
2022-10-24T16:10:55.883Z,42.85
2022-10-24T16:13:26.811Z,42.75
2022-10-24T16:15:58.125Z,43.00
2022-10-24T16:18:28.861Z,43.70
2022-10-24T16:21:01.736Z,42.85
2022-10-24T16:23:32.578Z,42.47
2022-10-24T16:26:03.843Z,43.72
2022-10-24T16:28:34.627Z,43.17
2022-10-24T16:31:07.608Z,43.55
2022-10-24T16:33:38.622Z,44.50
2022-10-24T16:36:09.635Z,44.33
2022-10-24T16:38:40.491Z,46.13
2022-10-24T16:41:20.950Z,42.70
2022-10-24T16:43:52.353Z,44.72
2022-10-24T16:46:24.097Z,44.35
2022-10-24T16:48:55.287Z,46.63
2022-10-24T16:51:34.405Z,47.15
2022-10-24T16:54:06.099Z,46.22
2022-10-24T16:56:37.008Z,46.72
2022-10-24T16:59:10.309Z,46.65
2022-10-24T17:01:44.026Z,46.17
2022-10-24T17:04:14.883Z,46.70
2022-10-24T17:06:45.842Z,45.60
2022-10-24T17:09:16.965Z,44.92
2022-10-24T17:14:18.938Z,46.35
2022-10-24T17:16:49.741Z,47.03
2022-10-24T17:19:20.582Z,45.63
2022-10-24T17:21:53.503Z,46.70
2022-10-24T17:24:28.227Z,46.80
2022-10-24T17:26:59.461Z,47.33
2022-10-24T17:29:31.719Z,45.97
2022-10-24T17:32:03.399Z,47.47
2022-10-24T17:34:35.347Z,47.47
2022-10-24T17:37:43.672Z,48.22
2022-10-24T17:40:24.598Z,46.13
2022-10-24T17:42:55.687Z,45.90
2022-10-24T17:45:27.768Z,45.75
2022-10-24T17:47:58.571Z,46.63
2022-10-24T17:50:29.547Z,45.92
2022-10-24T17:53:00.287Z,47.13
2022-10-24T17:55:45.789Z,46.95
2022-10-24T17:58:18.700Z,47.13
2022-10-24T18:00:49.889Z,47.15
2022-10-24T18:03:22.197Z,49.45
2022-10-24T18:05:53.068Z,49.10
2022-10-24T18:08:23.779Z,49.15
2022-10-24T18:10:54.592Z,49.42
2022-10-24T18:13:25.573Z,47.47
2022-10-24T18:15:56.376Z,48.22
2022-10-24T18:18:27.148Z,50.20
2022-10-24T18:21:28.391Z,49.63
2022-10-24T18:24:00.176Z,48.13
2022-10-24T18:26:31.327Z,49.22
2022-10-24T18:31:33.833Z,47.08
2022-10-24T18:34:08.580Z,46.72
2022-10-24T18:36:39.942Z,48.40
2022-10-24T18:39:10.842Z,48.90
2022-10-24T18:41:47.014Z,49.50
2022-10-24T18:44:25.865Z,49.78
2022-10-24T18:46:59.395Z,50.65
2022-10-24T18:49:32.437Z,49.72
2022-10-24T18:52:09.074Z,50.60
2022-10-24T18:54:49.242Z,51.20
2022-10-24T18:57:32.230Z,49.65
2022-10-24T19:00:03.446Z,51.28
2022-10-24T19:03:00.123Z,50.28
2022-10-24T19:05:53.796Z,52.25
2022-10-24T19:08:28.507Z,50.75
2022-10-24T19:11:00.082Z,48.80
2022-10-24T19:13:31.292Z,51.20
2022-10-24T19:16:05.737Z,49.42
2022-10-24T19:18:39.663Z,48.22
2022-10-24T19:21:10.664Z,49.60
2022-10-24T19:23:41.669Z,50.63
2022-10-24T19:26:15.085Z,49.05
2022-10-24T19:28:46.169Z,47.78
2022-10-24T19:31:18.359Z,48.38
2022-10-24T19:33:49.321Z,49.53
2022-10-24T19:36:20.135Z,49.03
2022-10-24T19:38:50.731Z,49.70
2022-10-24T19:41:21.739Z,49.45
2022-10-24T19:43:53.507Z,51.15
2022-10-24T19:46:24.606Z,51.50
2022-10-24T19:48:55.732Z,48.60
2022-10-24T19:53:59.687Z,48.70
2022-10-24T19:56:32.088Z,49.55
2022-10-24T19:59:03.058Z,47.67
2022-10-24T20:01:34.144Z,49.72
2022-10-24T20:04:05.095Z,48.35
2022-10-24T20:06:36.236Z,51.92
2022-10-24T20:09:07.394Z,51.10
2022-10-24T20:11:38.054Z,48.75
2022-10-24T20:14:08.779Z,55.38
2022-10-24T20:16:39.620Z,50.63
2022-10-24T20:19:10.364Z,53.25
2022-10-24T20:21:41.332Z,54.60
2022-10-24T20:24:12.969Z,52.67
2022-10-24T20:26:44.202Z,55.13
2022-10-24T20:31:50.081Z,53.22
2022-10-24T20:34:20.980Z,50.97
2022-10-24T20:36:51.757Z,53.28
2022-10-24T20:39:25.873Z,52.97
2022-10-24T20:41:56.669Z,54.38
2022-10-24T20:44:27.595Z,53.70
2022-10-24T20:46:59.337Z,51.03
2022-10-24T20:49:30.146Z,53.35
2022-10-24T20:52:01.052Z,52.10
2022-10-24T20:54:32.061Z,52.72
2022-10-24T20:57:02.825Z,53.78
2022-10-24T20:59:33.756Z,53.88
2022-10-24T21:02:04.615Z,52.63
2022-10-24T21:07:06.155Z,53.58
2022-10-24T21:09:37.778Z,53.63
2022-10-24T21:12:08.893Z,53.28
2022-10-24T21:17:10.371Z,54.00
2022-10-24T21:19:41.499Z,52.50
2022-10-24T21:22:12.258Z,54.28
2022-10-24T21:24:43.074Z,51.37
2022-10-24T21:27:13.929Z,53.25
2022-10-24T21:29:44.670Z,49.85
2022-10-24T21:32:15.796Z,44.85
2022-10-24T21:34:46.548Z,44.55
2022-10-24T21:37:17.262Z,44.17
2022-10-24T21:39:48.043Z,44.37
2022-10-24T21:42:18.967Z,42.38
2022-10-24T21:44:49.839Z,45.15
2022-10-24T21:47:20.685Z,42.97
2022-10-24T21:49:51.597Z,46.05
2022-10-24T21:52:22.481Z,44.15
2022-10-24T21:54:53.367Z,45.42
2022-10-24T21:57:24.278Z,45.85
2022-10-24T21:59:54.991Z,45.73
2022-10-24T22:02:26.011Z,43.22
2022-10-24T22:04:56.898Z,45.13
2022-10-24T22:07:28.157Z,45.08
2022-10-24T22:12:29.741Z,44.67
2022-10-24T22:15:00.625Z,42.75
2022-10-24T22:17:31.235Z,44.03
2022-10-24T22:20:02.138Z,42.30
2022-10-24T22:22:32.716Z,43.90
2022-10-24T22:25:03.452Z,44.13
2022-10-24T22:27:34.310Z,43.67
2022-10-24T22:30:05.070Z,41.05
2022-10-24T22:32:36.057Z,42.17
2022-10-24T22:35:07.278Z,40.97
2022-10-24T22:37:38.926Z,41.53
2022-10-24T22:40:31.226Z,44.28
2022-10-24T22:43:02.499Z,42.30
2022-10-24T22:45:33.630Z,44.08
2022-10-24T22:48:12.953Z,42.58
2022-10-24T22:50:52.038Z,43.08
2022-10-24T22:53:30.145Z,43.90
2022-10-24T22:56:25.585Z,42.65
2022-10-24T23:00:05.215Z,44.35
2022-10-24T23:02:40.717Z,44.22
2022-10-24T23:05:11.672Z,45.10
2022-10-24T23:07:50.323Z,45.38
2022-10-24T23:10:24.459Z,45.05
2022-10-24T23:12:56.075Z,44.80
2022-10-24T23:15:27.468Z,44.92
2022-10-24T23:21:09.855Z,41.40
2022-10-24T23:23:40.955Z,42.28
2022-10-24T23:28:58.436Z,42.22
2022-10-24T23:31:29.618Z,41.25
2022-10-24T23:34:00.565Z,40.55
2022-10-24T23:36:31.708Z,42.17
2022-10-24T23:39:02.884Z,41.40
2022-10-24T23:41:34.209Z,41.00
2022-10-24T23:46:48.094Z,41.22
2022-10-24T23:49:43.556Z,41.15
2022-10-24T23:52:29.206Z,41.10
2022-10-24T23:55:00.295Z,40.28
